Waikoloa, HI (96738)

6:34 PM HST on February 12, 2016 (GMT -1000)
Waikoloa Village | | Change Station
CLOSE
Current Station
Personal Weather Station
Location: Waikoloa Village, HI
Elevation: 994 ft
Nearby Weather Stations

Elev 994 ft 19.93 °N, 155.79 °W | Updated 14 minutes ago

Clear
Clear
74.1 °F
Feels Like 77 °F
N
2.7
Wind Variable Wind from West

Today
High -- | Low -- °F
--% Chance of Precip.
Yesterday
High -- | Low -- °F
Precip. -- in
Pressure 29.99 in
Visibility 10.0 miles
Clouds Clear
Heat Index 77 °F
Dew Point 59 °F
Humidity 60%
Rainfall 0.00 in
Snow Depth Not available.
6:54 AM 6:21 PM
Waxing Crescent, 27% visible
METAR PHKO 130353Z 23005KT 10SM CLR 26/17 A2998 RMK AO2 SLP153 T02560172
Pressure 29.99 in
Visibility 10.0 miles
Clouds Clear
Heat Index 77 °F
Dew Point 59 °F
Humidity 60%
Rainfall 0.00 in
Snow Depth Not available.
6:54 AM 6:21 PM
Waxing Crescent, 27% visible
METAR PHKO 130353Z 23005KT 10SM CLR 26/17 A2998 RMK AO2 SLP153 T02560172

10-Day Weather Forecast

Almanac

Astronomy

Feb. 12, 2016 Rise Set
Actual Time
Civil Twilight
Nautical Twilight
Astronomical Twilight
Moon
Length of Visible Light
Length of Day
Tomorrow will be .
, % of the Moon is Illuminated

Today's Extremes

State Highs State Lows

Community

WunderPhotos

Upload Photos

1,892,501 photos uploaded!

WunderBlog® & News

Nearby

Air Quality

  Air Quality AQ Index Pollutant
Not available.

Snow Depth

Station Depth Elevation

Earthquake Activity

City Distance Mag. Time & Date
Minimum magnitude displayed is 2.5.

Coastal Water Temperatures

Place Temperature

Stations

Nearby Weather Stations

Station Location Temp. Windchill Dew Point Humidity Wind Precip. Elev Updated Type
                   

Watches & Warnings

There are currently no watches in effect.